sensor_id;sensor_type;location;lat;lon;timestamp;temperature;humidity
39045;DHT22;52192;52.002;5.956;2022-08-03T00:01:32;24.40;65.20
39045;DHT22;52192;52.002;5.956;2022-08-03T00:03:58;24.30;65.40
39045;DHT22;52192;52.002;5.956;2022-08-03T00:06:23;24.30;65.60
39045;DHT22;52192;52.002;5.956;2022-08-03T00:08:49;24.20;65.70
39045;DHT22;52192;52.002;5.956;2022-08-03T00:11:14;24.20;65.70
39045;DHT22;52192;52.002;5.956;2022-08-03T00:13:40;24.10;65.80
39045;DHT22;52192;52.002;5.956;2022-08-03T00:16:06;24.10;65.90
39045;DHT22;52192;52.002;5.956;2022-08-03T00:18:31;24.00;66.00
39045;DHT22;52192;52.002;5.956;2022-08-03T00:20:57;24.00;66.30
39045;DHT22;52192;52.002;5.956;2022-08-03T00:23:22;23.90;66.30
39045;DHT22;52192;52.002;5.956;2022-08-03T00:25:48;23.90;66.50
39045;DHT22;52192;52.002;5.956;2022-08-03T00:28:13;23.80;66.70
39045;DHT22;52192;52.002;5.956;2022-08-03T00:30:39;23.80;66.70
39045;DHT22;52192;52.002;5.956;2022-08-03T00:33:04;23.80;66.70
39045;DHT22;52192;52.002;5.956;2022-08-03T00:35:30;23.70;66.80
39045;DHT22;52192;52.002;5.956;2022-08-03T00:37:56;23.70;66.80
39045;DHT22;52192;52.002;5.956;2022-08-03T00:40:21;23.60;66.80
39045;DHT22;52192;52.002;5.956;2022-08-03T00:42:48;23.60;66.80
39045;DHT22;52192;52.002;5.956;2022-08-03T00:45:15;23.60;67.10
39045;DHT22;52192;52.002;5.956;2022-08-03T00:47:41;23.60;67.20
39045;DHT22;52192;52.002;5.956;2022-08-03T00:50:07;23.50;67.10
39045;DHT22;52192;52.002;5.956;2022-08-03T00:52:33;23.50;67.30
39045;DHT22;52192;52.002;5.956;2022-08-03T00:54:59;23.40;67.30
39045;DHT22;52192;52.002;5.956;2022-08-03T00:57:25;23.40;67.30
39045;DHT22;52192;52.002;5.956;2022-08-03T00:59:50;23.40;67.20
39045;DHT22;52192;52.002;5.956;2022-08-03T01:02:16;23.40;67.40
39045;DHT22;52192;52.002;5.956;2022-08-03T01:04:41;23.30;67.50
39045;DHT22;52192;52.002;5.956;2022-08-03T01:12:43;23.20;67.60
39045;DHT22;52192;52.002;5.956;2022-08-03T01:15:12;23.20;67.70
39045;DHT22;52192;52.002;5.956;2022-08-03T01:17:47;23.10;67.80
39045;DHT22;52192;52.002;5.956;2022-08-03T01:20:13;23.10;67.90
39045;DHT22;52192;52.002;5.956;2022-08-03T01:22:44;23.10;68.10
39045;DHT22;52192;52.002;5.956;2022-08-03T01:25:23;23.00;68.10
39045;DHT22;52192;52.002;5.956;2022-08-03T01:30:21;22.90;68.40
39045;DHT22;52192;52.002;5.956;2022-08-03T01:33:35;22.90;68.60
39045;DHT22;52192;52.002;5.956;2022-08-03T01:35:35;22.80;68.70
39045;DHT22;52192;52.002;5.956;2022-08-03T01:38:04;22.80;68.80
39045;DHT22;52192;52.002;5.956;2022-08-03T01:40:31;22.80;68.80
39045;DHT22;52192;52.002;5.956;2022-08-03T01:42:59;22.80;68.80
39045;DHT22;52192;52.002;5.956;2022-08-03T01:45:26;22.70;68.80
39045;DHT22;52192;52.002;5.956;2022-08-03T01:47:52;22.70;68.80
39045;DHT22;52192;52.002;5.956;2022-08-03T01:50:20;22.70;68.90
39045;DHT22;52192;52.002;5.956;2022-08-03T01:52:46;22.70;69.10
39045;DHT22;52192;52.002;5.956;2022-08-03T01:55:13;22.70;69.20
39045;DHT22;52192;52.002;5.956;2022-08-03T01:57:41;22.70;69.30
39045;DHT22;52192;52.002;5.956;2022-08-03T02:00:07;22.60;69.30
39045;DHT22;52192;52.002;5.956;2022-08-03T02:02:36;22.60;69.40
39045;DHT22;52192;52.002;5.956;2022-08-03T02:05:06;22.60;69.30
39045;DHT22;52192;52.002;5.956;2022-08-03T02:07:32;22.60;69.20
39045;DHT22;52192;52.002;5.956;2022-08-03T02:09:59;22.60;69.20
39045;DHT22;52192;52.002;5.956;2022-08-03T02:12:25;22.60;69.30
39045;DHT22;52192;52.002;5.956;2022-08-03T02:14:52;22.60;69.30
39045;DHT22;52192;52.002;5.956;2022-08-03T02:17:18;22.60;69.40
39045;DHT22;52192;52.002;5.956;2022-08-03T02:19:44;22.60;69.40
39045;DHT22;52192;52.002;5.956;2022-08-03T02:22:10;22.60;69.40
39045;DHT22;52192;52.002;5.956;2022-08-03T02:24:37;22.60;69.40
39045;DHT22;52192;52.002;5.956;2022-08-03T02:27:13;22.50;69.40
39045;DHT22;52192;52.002;5.956;2022-08-03T02:29:42;22.50;69.40
39045;DHT22;52192;52.002;5.956;2022-08-03T02:32:13;22.50;70.00
39045;DHT22;52192;52.002;5.956;2022-08-03T02:34:41;22.50;69.50
39045;DHT22;52192;52.002;5.956;2022-08-03T02:37:07;22.40;69.50
39045;DHT22;52192;52.002;5.956;2022-08-03T02:39:34;22.40;69.60
39045;DHT22;52192;52.002;5.956;2022-08-03T02:42:00;22.40;69.60
39045;DHT22;52192;52.002;5.956;2022-08-03T02:44:29;22.40;69.80
39045;DHT22;52192;52.002;5.956;2022-08-03T02:46:58;22.30;69.80
39045;DHT22;52192;52.002;5.956;2022-08-03T02:49:25;22.30;69.80
39045;DHT22;52192;52.002;5.956;2022-08-03T02:51:52;22.30;69.80
39045;DHT22;52192;52.002;5.956;2022-08-03T02:54:18;22.30;69.90
39045;DHT22;52192;52.002;5.956;2022-08-03T02:56:45;22.20;70.00
39045;DHT22;52192;52.002;5.956;2022-08-03T02:59:11;22.20;70.00
39045;DHT22;52192;52.002;5.956;2022-08-03T03:01:37;22.20;70.10
39045;DHT22;52192;52.002;5.956;2022-08-03T03:04:03;22.20;70.10
39045;DHT22;52192;52.002;5.956;2022-08-03T03:06:29;22.20;70.10
39045;DHT22;52192;52.002;5.956;2022-08-03T03:08:55;22.20;70.20
39045;DHT22;52192;52.002;5.956;2022-08-03T03:11:21;22.10;70.30
39045;DHT22;52192;52.002;5.956;2022-08-03T03:13:50;22.10;70.50
39045;DHT22;52192;52.002;5.956;2022-08-03T03:16:16;22.00;70.80
39045;DHT22;52192;52.002;5.956;2022-08-03T03:18:43;22.00;70.90
39045;DHT22;52192;52.002;5.956;2022-08-03T03:21:09;21.90;70.80
39045;DHT22;52192;52.002;5.956;2022-08-03T03:23:35;21.90;70.80
39045;DHT22;52192;52.002;5.956;2022-08-03T03:26:01;21.90;70.70
39045;DHT22;52192;52.002;5.956;2022-08-03T03:28:27;21.90;70.70
39045;DHT22;52192;52.002;5.956;2022-08-03T03:30:53;21.90;70.80
39045;DHT22;52192;52.002;5.956;2022-08-03T03:33:19;21.90;70.90
39045;DHT22;52192;52.002;5.956;2022-08-03T03:35:45;21.90;71.00
39045;DHT22;52192;52.002;5.956;2022-08-03T03:38:11;21.90;71.10
39045;DHT22;52192;52.002;5.956;2022-08-03T03:40:37;21.90;71.00
39045;DHT22;52192;52.002;5.956;2022-08-03T03:43:06;21.80;71.10
39045;DHT22;52192;52.002;5.956;2022-08-03T03:45:32;21.80;71.10
39045;DHT22;52192;52.002;5.956;2022-08-03T03:48:00;21.80;71.20
39045;DHT22;52192;52.002;5.956;2022-08-03T03:50:26;21.70;71.30
39045;DHT22;52192;52.002;5.956;2022-08-03T03:52:52;21.70;71.40
39045;DHT22;52192;52.002;5.956;2022-08-03T03:55:17;21.70;71.50
39045;DHT22;52192;52.002;5.956;2022-08-03T03:57:45;21.70;71.50
39045;DHT22;52192;52.002;5.956;2022-08-03T04:00:12;21.70;71.50
39045;DHT22;52192;52.002;5.956;2022-08-03T04:02:38;21.70;71.50
39045;DHT22;52192;52.002;5.956;2022-08-03T04:05:04;21.70;71.60
39045;DHT22;52192;52.002;5.956;2022-08-03T04:07:52;21.60;71.60
39045;DHT22;52192;52.002;5.956;2022-08-03T04:10:38;21.60;71.80
39045;DHT22;52192;52.002;5.956;2022-08-03T04:13:26;21.60;71.90
39045;DHT22;52192;52.002;5.956;2022-08-03T04:15:54;21.60;72.00
39045;DHT22;52192;52.002;5.956;2022-08-03T04:18:21;21.60;72.20
39045;DHT22;52192;52.002;5.956;2022-08-03T04:20:48;21.60;72.30
39045;DHT22;52192;52.002;5.956;2022-08-03T04:23:15;21.60;72.30
39045;DHT22;52192;52.002;5.956;2022-08-03T04:25:41;21.60;72.30
39045;DHT22;52192;52.002;5.956;2022-08-03T04:28:07;21.60;72.20
39045;DHT22;52192;52.002;5.956;2022-08-03T04:30:35;21.70;72.20
39045;DHT22;52192;52.002;5.956;2022-08-03T04:33:01;21.60;72.20
39045;DHT22;52192;52.002;5.956;2022-08-03T04:35:28;21.70;72.20
39045;DHT22;52192;52.002;5.956;2022-08-03T04:37:54;21.70;72.20
39045;DHT22;52192;52.002;5.956;2022-08-03T04:40:22;21.70;72.30
39045;DHT22;52192;52.002;5.956;2022-08-03T04:42:49;21.70;72.40
39045;DHT22;52192;52.002;5.956;2022-08-03T04:45:15;21.70;72.80
39045;DHT22;52192;52.002;5.956;2022-08-03T04:47:42;21.80;72.80
39045;DHT22;52192;52.002;5.956;2022-08-03T04:50:08;21.90;73.00
39045;DHT22;52192;52.002;5.956;2022-08-03T04:52:34;22.00;72.90
39045;DHT22;52192;52.002;5.956;2022-08-03T04:54:59;22.10;72.70
39045;DHT22;52192;52.002;5.956;2022-08-03T04:57:25;22.10;72.60
39045;DHT22;52192;52.002;5.956;2022-08-03T04:59:51;22.20;72.80
39045;DHT22;52192;52.002;5.956;2022-08-03T05:02:21;22.30;72.80
39045;DHT22;52192;52.002;5.956;2022-08-03T05:04:48;22.30;72.70
39045;DHT22;52192;52.002;5.956;2022-08-03T05:07:14;22.40;72.60
39045;DHT22;52192;52.002;5.956;2022-08-03T05:09:39;22.40;73.00
39045;DHT22;52192;52.002;5.956;2022-08-03T05:12:05;22.40;73.00
39045;DHT22;52192;52.002;5.956;2022-08-03T05:14:31;22.50;73.40
39045;DHT22;52192;52.002;5.956;2022-08-03T05:16:57;22.50;73.60
39045;DHT22;52192;52.002;5.956;2022-08-03T05:19:22;22.50;73.70
39045;DHT22;52192;52.002;5.956;2022-08-03T05:21:48;22.50;73.60
39045;DHT22;52192;52.002;5.956;2022-08-03T05:24:13;22.60;73.60
39045;DHT22;52192;52.002;5.956;2022-08-03T05:26:39;22.60;73.40
39045;DHT22;52192;52.002;5.956;2022-08-03T05:29:05;22.70;73.20
39045;DHT22;52192;52.002;5.956;2022-08-03T05:31:30;22.70;73.10
39045;DHT22;52192;52.002;5.956;2022-08-03T05:33:56;22.80;73.40
39045;DHT22;52192;52.002;5.956;2022-08-03T05:36:21;22.80;73.20
39045;DHT22;52192;52.002;5.956;2022-08-03T05:38:47;22.90;73.20
39045;DHT22;52192;52.002;5.956;2022-08-03T05:41:13;23.00;73.00
39045;DHT22;52192;52.002;5.956;2022-08-03T05:43:38;23.00;72.90
39045;DHT22;52192;52.002;5.956;2022-08-03T05:46:04;23.00;72.60
39045;DHT22;52192;52.002;5.956;2022-08-03T05:48:29;23.10;72.60
39045;DHT22;52192;52.002;5.956;2022-08-03T05:50:55;23.10;72.50
39045;DHT22;52192;52.002;5.956;2022-08-03T05:53:20;23.20;72.50
39045;DHT22;52192;52.002;5.956;2022-08-03T05:55:46;23.20;72.30
39045;DHT22;52192;52.002;5.956;2022-08-03T05:58:11;23.30;72.10
39045;DHT22;52192;52.002;5.956;2022-08-03T06:00:37;23.30;72.00
39045;DHT22;52192;52.002;5.956;2022-08-03T06:03:03;23.30;71.90
39045;DHT22;52192;52.002;5.956;2022-08-03T06:05:28;23.30;71.80
39045;DHT22;52192;52.002;5.956;2022-08-03T06:07:54;23.40;71.80
39045;DHT22;52192;52.002;5.956;2022-08-03T06:10:20;23.40;71.30
39045;DHT22;52192;52.002;5.956;2022-08-03T06:12:45;23.50;71.40
39045;DHT22;52192;52.002;5.956;2022-08-03T06:15:14;23.50;71.30
39045;DHT22;52192;52.002;5.956;2022-08-03T06:17:43;23.50;71.30
39045;DHT22;52192;52.002;5.956;2022-08-03T06:20:09;23.40;71.20
39045;DHT22;52192;52.002;5.956;2022-08-03T06:22:35;23.50;71.30
39045;DHT22;52192;52.002;5.956;2022-08-03T06:25:01;23.50;71.10
39045;DHT22;52192;52.002;5.956;2022-08-03T06:27:26;23.50;70.90
39045;DHT22;52192;52.002;5.956;2022-08-03T06:29:52;23.60;70.80
39045;DHT22;52192;52.002;5.956;2022-08-03T06:32:17;23.60;70.80
39045;DHT22;52192;52.002;5.956;2022-08-03T06:34:47;23.60;70.70
39045;DHT22;52192;52.002;5.956;2022-08-03T06:37:13;23.70;70.40
39045;DHT22;52192;52.002;5.956;2022-08-03T06:39:38;23.70;70.20
39045;DHT22;52192;52.002;5.956;2022-08-03T06:42:04;23.70;70.10
39045;DHT22;52192;52.002;5.956;2022-08-03T06:44:30;23.80;70.20
39045;DHT22;52192;52.002;5.956;2022-08-03T06:46:55;23.80;70.00
39045;DHT22;52192;52.002;5.956;2022-08-03T06:49:21;23.90;69.80
39045;DHT22;52192;52.002;5.956;2022-08-03T06:51:46;23.90;69.70
39045;DHT22;52192;52.002;5.956;2022-08-03T06:54:12;24.00;69.60
39045;DHT22;52192;52.002;5.956;2022-08-03T06:56:37;24.00;69.50
39045;DHT22;52192;52.002;5.956;2022-08-03T06:59:03;24.10;69.30
39045;DHT22;52192;52.002;5.956;2022-08-03T07:01:29;24.00;69.20
39045;DHT22;52192;52.002;5.956;2022-08-03T07:03:54;24.20;69.00
39045;DHT22;52192;52.002;5.956;2022-08-03T07:06:20;24.20;68.70
39045;DHT22;52192;52.002;5.956;2022-08-03T07:08:46;24.30;68.20
39045;DHT22;52192;52.002;5.956;2022-08-03T07:11:12;24.30;68.20
39045;DHT22;52192;52.002;5.956;2022-08-03T07:13:38;24.40;68.00
39045;DHT22;52192;52.002;5.956;2022-08-03T07:16:05;24.40;67.50
39045;DHT22;52192;52.002;5.956;2022-08-03T07:18:31;24.40;67.60
39045;DHT22;52192;52.002;5.956;2022-08-03T07:20:57;24.40;67.80
39045;DHT22;52192;52.002;5.956;2022-08-03T07:23:22;24.50;67.30
39045;DHT22;52192;52.002;5.956;2022-08-03T07:25:48;24.50;67.10
39045;DHT22;52192;52.002;5.956;2022-08-03T07:28:14;24.50;67.10
39045;DHT22;52192;52.002;5.956;2022-08-03T07:30:40;24.60;67.00
39045;DHT22;52192;52.002;5.956;2022-08-03T07:33:05;24.70;66.80
39045;DHT22;52192;52.002;5.956;2022-08-03T07:35:31;24.80;66.40
39045;DHT22;52192;52.002;5.956;2022-08-03T07:37:56;24.90;66.30
39045;DHT22;52192;52.002;5.956;2022-08-03T07:40:22;25.00;65.90
39045;DHT22;52192;52.002;5.956;2022-08-03T07:42:48;25.00;65.70
39045;DHT22;52192;52.002;5.956;2022-08-03T07:45:13;25.10;65.70
39045;DHT22;52192;52.002;5.956;2022-08-03T07:47:39;25.10;65.60
39045;DHT22;52192;52.002;5.956;2022-08-03T07:50:05;25.20;65.40
39045;DHT22;52192;52.002;5.956;2022-08-03T07:52:30;25.30;66.10
39045;DHT22;52192;52.002;5.956;2022-08-03T07:55:16;25.40;65.10
39045;DHT22;52192;52.002;5.956;2022-08-03T07:57:42;25.50;64.40
39045;DHT22;52192;52.002;5.956;2022-08-03T08:00:11;25.50;64.60
39045;DHT22;52192;52.002;5.956;2022-08-03T08:02:38;25.50;64.20
39045;DHT22;52192;52.002;5.956;2022-08-03T08:05:04;25.50;64.20
39045;DHT22;52192;52.002;5.956;2022-08-03T08:07:29;25.60;63.80
39045;DHT22;52192;52.002;5.956;2022-08-03T08:09:55;25.70;63.80
39045;DHT22;52192;52.002;5.956;2022-08-03T08:12:21;25.70;63.60
39045;DHT22;52192;52.002;5.956;2022-08-03T08:14:46;25.80;63.60
39045;DHT22;52192;52.002;5.956;2022-08-03T08:17:12;25.80;63.00
39045;DHT22;52192;52.002;5.956;2022-08-03T08:19:38;25.90;63.20
39045;DHT22;52192;52.002;5.956;2022-08-03T08:22:03;25.90;63.10
39045;DHT22;52192;52.002;5.956;2022-08-03T08:24:30;25.90;62.90
39045;DHT22;52192;52.002;5.956;2022-08-03T08:26:55;26.00;62.60
39045;DHT22;52192;52.002;5.956;2022-08-03T08:29:21;26.00;62.70
39045;DHT22;52192;52.002;5.956;2022-08-03T08:31:47;26.10;62.60
39045;DHT22;52192;52.002;5.956;2022-08-03T08:34:14;26.30;62.60
39045;DHT22;52192;52.002;5.956;2022-08-03T08:36:40;26.40;62.20
39045;DHT22;52192;52.002;5.956;2022-08-03T08:39:05;26.60;62.10
39045;DHT22;52192;52.002;5.956;2022-08-03T08:41:31;26.70;61.50
39045;DHT22;52192;52.002;5.956;2022-08-03T08:44:00;26.70;60.90
39045;DHT22;52192;52.002;5.956;2022-08-03T08:46:26;26.70;60.40
39045;DHT22;52192;52.002;5.956;2022-08-03T08:48:53;26.80;60.20
39045;DHT22;52192;52.002;5.956;2022-08-03T08:51:20;26.90;59.90
39045;DHT22;52192;52.002;5.956;2022-08-03T08:53:48;26.90;59.80
39045;DHT22;52192;52.002;5.956;2022-08-03T08:56:14;26.90;58.90
39045;DHT22;52192;52.002;5.956;2022-08-03T08:58:46;26.90;58.80
39045;DHT22;52192;52.002;5.956;2022-08-03T09:01:13;27.00;58.80
39045;DHT22;52192;52.002;5.956;2022-08-03T09:03:39;27.10;58.70
39045;DHT22;52192;52.002;5.956;2022-08-03T09:06:05;27.20;58.70
39045;DHT22;52192;52.002;5.956;2022-08-03T09:08:31;27.30;58.40
39045;DHT22;52192;52.002;5.956;2022-08-03T09:10:58;27.40;58.60
39045;DHT22;52192;52.002;5.956;2022-08-03T09:13:23;27.50;58.40
39045;DHT22;52192;52.002;5.956;2022-08-03T09:16:05;27.70;58.30
39045;DHT22;52192;52.002;5.956;2022-08-03T09:18:33;27.80;58.00
39045;DHT22;52192;52.002;5.956;2022-08-03T09:21:11;27.90;57.30
39045;DHT22;52192;52.002;5.956;2022-08-03T09:26:29;28.00;56.40
39045;DHT22;52192;52.002;5.956;2022-08-03T09:28:59;28.00;56.30
39045;DHT22;52192;52.002;5.956;2022-08-03T09:31:29;28.00;56.30
39045;DHT22;52192;52.002;5.956;2022-08-03T09:33:55;28.10;56.30
39045;DHT22;52192;52.002;5.956;2022-08-03T09:36:37;28.20;55.70
39045;DHT22;52192;52.002;5.956;2022-08-03T09:39:07;28.30;55.70
39045;DHT22;52192;52.002;5.956;2022-08-03T09:41:36;28.40;55.20
39045;DHT22;52192;52.002;5.956;2022-08-03T09:44:02;28.50;55.30
39045;DHT22;52192;52.002;5.956;2022-08-03T09:46:27;28.60;55.00
39045;DHT22;52192;52.002;5.956;2022-08-03T09:49:11;28.60;54.50
39045;DHT22;52192;52.002;5.956;2022-08-03T09:51:37;28.70;54.30
39045;DHT22;52192;52.002;5.956;2022-08-03T09:54:02;28.60;54.10
39045;DHT22;52192;52.002;5.956;2022-08-03T09:56:41;28.70;55.00
39045;DHT22;52192;52.002;5.956;2022-08-03T09:59:07;28.70;54.10
39045;DHT22;52192;52.002;5.956;2022-08-03T10:01:33;28.70;53.90
39045;DHT22;52192;52.002;5.956;2022-08-03T10:03:59;28.80;54.00
39045;DHT22;52192;52.002;5.956;2022-08-03T10:06:24;28.80;53.90
39045;DHT22;52192;52.002;5.956;2022-08-03T10:09:15;28.90;54.10
39045;DHT22;52192;52.002;5.956;2022-08-03T10:11:37;29.00;54.10
39045;DHT22;52192;52.002;5.956;2022-08-03T10:14:03;29.10;52.80
39045;DHT22;52192;52.002;5.956;2022-08-03T10:16:38;29.10;53.20
39045;DHT22;52192;52.002;5.956;2022-08-03T10:19:04;29.20;53.00
39045;DHT22;52192;52.002;5.956;2022-08-03T10:21:32;29.30;53.20
39045;DHT22;52192;52.002;5.956;2022-08-03T10:23:58;29.50;52.80
39045;DHT22;52192;52.002;5.956;2022-08-03T10:26:24;29.70;52.70
39045;DHT22;52192;52.002;5.956;2022-08-03T10:28:51;29.90;52.70
39045;DHT22;52192;52.002;5.956;2022-08-03T10:31:17;29.90;51.40
39045;DHT22;52192;52.002;5.956;2022-08-03T10:33:46;30.00;51.30
39045;DHT22;52192;52.002;5.956;2022-08-03T10:36:13;30.10;50.80
39045;DHT22;52192;52.002;5.956;2022-08-03T10:38:39;30.30;51.10
39045;DHT22;52192;52.002;5.956;2022-08-03T10:41:07;30.40;50.60
39045;DHT22;52192;52.002;5.956;2022-08-03T10:43:41;30.60;50.70
39045;DHT22;52192;52.002;5.956;2022-08-03T10:46:10;30.70;49.70
39045;DHT22;52192;52.002;5.956;2022-08-03T10:48:35;30.80;50.10
39045;DHT22;52192;52.002;5.956;2022-08-03T10:51:01;30.90;48.90
39045;DHT22;52192;52.002;5.956;2022-08-03T10:53:35;31.00;48.20
39045;DHT22;52192;52.002;5.956;2022-08-03T10:56:01;31.00;48.30
39045;DHT22;52192;52.002;5.956;2022-08-03T10:58:45;31.00;48.30
39045;DHT22;52192;52.002;5.956;2022-08-03T11:01:11;31.00;48.00
39045;DHT22;52192;52.002;5.956;2022-08-03T11:06:21;31.30;47.10
39045;DHT22;52192;52.002;5.956;2022-08-03T11:08:49;31.40;47.40
39045;DHT22;52192;52.002;5.956;2022-08-03T11:13:56;31.60;47.00
39045;DHT22;52192;52.002;5.956;2022-08-03T11:16:22;31.70;46.60
39045;DHT22;52192;52.002;5.956;2022-08-03T11:18:58;31.80;45.50
39045;DHT22;52192;52.002;5.956;2022-08-03T11:24:08;31.90;45.90
39045;DHT22;52192;52.002;5.956;2022-08-03T11:26:33;32.00;45.40
39045;DHT22;52192;52.002;5.956;2022-08-03T11:31:57;32.10;45.30
39045;DHT22;52192;52.002;5.956;2022-08-03T11:34:23;32.20;44.90
39045;DHT22;52192;52.002;5.956;2022-08-03T11:39:39;32.40;44.50
39045;DHT22;52192;52.002;5.956;2022-08-03T11:44:49;32.40;43.50
39045;DHT22;52192;52.002;5.956;2022-08-03T11:47:14;32.60;42.80
39045;DHT22;52192;52.002;5.956;2022-08-03T11:49:45;32.70;43.10
39045;DHT22;52192;52.002;5.956;2022-08-03T11:52:11;32.80;42.70
39045;DHT22;52192;52.002;5.956;2022-08-03T11:54:37;32.90;43.00
39045;DHT22;52192;52.002;5.956;2022-08-03T11:57:03;33.10;43.60
39045;DHT22;52192;52.002;5.956;2022-08-03T11:59:32;33.40;43.90
39045;DHT22;52192;52.002;5.956;2022-08-03T12:02:11;33.70;42.10
39045;DHT22;52192;52.002;5.956;2022-08-03T12:04:51;33.70;41.40
39045;DHT22;52192;52.002;5.956;2022-08-03T12:07:17;33.70;40.90
39045;DHT22;52192;52.002;5.956;2022-08-03T12:09:43;33.60;41.60
39045;DHT22;52192;52.002;5.956;2022-08-03T12:12:26;33.60;40.40
39045;DHT22;52192;52.002;5.956;2022-08-03T12:14:51;33.60;41.20
39045;DHT22;52192;52.002;5.956;2022-08-03T12:17:17;33.70;40.60
39045;DHT22;52192;52.002;5.956;2022-08-03T12:19:42;33.80;40.20
39045;DHT22;52192;52.002;5.956;2022-08-03T12:22:08;33.90;40.60
39045;DHT22;52192;52.002;5.956;2022-08-03T12:24:40;34.10;39.80
39045;DHT22;52192;52.002;5.956;2022-08-03T12:27:06;34.10;39.30
39045;DHT22;52192;52.002;5.956;2022-08-03T12:29:32;34.10;40.00
39045;DHT22;52192;52.002;5.956;2022-08-03T12:31:57;34.20;39.50
39045;DHT22;52192;52.002;5.956;2022-08-03T12:34:23;34.40;39.30
39045;DHT22;52192;52.002;5.956;2022-08-03T12:36:53;34.30;38.90
39045;DHT22;52192;52.002;5.956;2022-08-03T12:39:24;34.30;39.40
39045;DHT22;52192;52.002;5.956;2022-08-03T12:41:53;34.30;39.40
39045;DHT22;52192;52.002;5.956;2022-08-03T12:44:28;34.30;39.80
39045;DHT22;52192;52.002;5.956;2022-08-03T12:46:56;34.50;40.10
39045;DHT22;52192;52.002;5.956;2022-08-03T12:49:21;34.80;39.50
39045;DHT22;52192;52.002;5.956;2022-08-03T12:54:16;35.00;39.00
39045;DHT22;52192;52.002;5.956;2022-08-03T12:57:01;35.20;37.90
39045;DHT22;52192;52.002;5.956;2022-08-03T12:59:31;35.20;37.80
39045;DHT22;52192;52.002;5.956;2022-08-03T13:01:57;35.20;38.70
39045;DHT22;52192;52.002;5.956;2022-08-03T13:04:27;35.30;38.30
39045;DHT22;52192;52.002;5.956;2022-08-03T13:07:06;35.40;37.70
39045;DHT22;52192;52.002;5.956;2022-08-03T13:12:31;35.30;37.00
39045;DHT22;52192;52.002;5.956;2022-08-03T13:14:58;35.30;37.50
39045;DHT22;52192;52.002;5.956;2022-08-03T13:17:24;35.30;37.20
39045;DHT22;52192;52.002;5.956;2022-08-03T13:19:50;35.20;37.20
39045;DHT22;52192;52.002;5.956;2022-08-03T13:22:19;35.20;37.80
39045;DHT22;52192;52.002;5.956;2022-08-03T13:24:46;35.30;37.40
39045;DHT22;52192;52.002;5.956;2022-08-03T13:27:12;35.40;37.60
39045;DHT22;52192;52.002;5.956;2022-08-03T13:29:38;35.60;37.80
39045;DHT22;52192;52.002;5.956;2022-08-03T13:32:04;35.70;37.40
39045;DHT22;52192;52.002;5.956;2022-08-03T13:34:30;35.80;37.30
39045;DHT22;52192;52.002;5.956;2022-08-03T13:36:55;35.90;37.40
39045;DHT22;52192;52.002;5.956;2022-08-03T13:39:21;36.10;37.50
39045;DHT22;52192;52.002;5.956;2022-08-03T13:41:47;36.10;37.60
39045;DHT22;52192;52.002;5.956;2022-08-03T13:44:13;36.10;37.80
39045;DHT22;52192;52.002;5.956;2022-08-03T13:46:38;36.00;38.00
39045;DHT22;52192;52.002;5.956;2022-08-03T13:49:05;35.80;37.80
39045;DHT22;52192;52.002;5.956;2022-08-03T13:51:30;35.70;38.20
39045;DHT22;52192;52.002;5.956;2022-08-03T13:53:56;35.70;38.70
39045;DHT22;52192;52.002;5.956;2022-08-03T13:56:26;35.70;38.70
39045;DHT22;52192;52.002;5.956;2022-08-03T13:58:52;35.90;38.70
39045;DHT22;52192;52.002;5.956;2022-08-03T14:01:18;35.80;38.70
39045;DHT22;52192;52.002;5.956;2022-08-03T14:03:43;35.90;38.50
39045;DHT22;52192;52.002;5.956;2022-08-03T14:06:10;35.80;38.50
39045;DHT22;52192;52.002;5.956;2022-08-03T14:08:36;35.80;38.90
39045;DHT22;52192;52.002;5.956;2022-08-03T14:11:02;35.70;39.00
39045;DHT22;52192;52.002;5.956;2022-08-03T14:13:27;35.90;39.30
39045;DHT22;52192;52.002;5.956;2022-08-03T14:15:53;36.10;38.70
39045;DHT22;52192;52.002;5.956;2022-08-03T14:18:20;35.90;38.90
39045;DHT22;52192;52.002;5.956;2022-08-03T14:20:45;35.70;39.00
39045;DHT22;52192;52.002;5.956;2022-08-03T14:23:11;35.50;39.20
39045;DHT22;52192;52.002;5.956;2022-08-03T14:25:37;35.30;39.90
39045;DHT22;52192;52.002;5.956;2022-08-03T14:28:02;35.40;39.90
39045;DHT22;52192;52.002;5.956;2022-08-03T14:30:28;35.60;40.10
39045;DHT22;52192;52.002;5.956;2022-08-03T14:32:55;35.90;39.80
39045;DHT22;52192;52.002;5.956;2022-08-03T14:35:20;35.90;39.50
39045;DHT22;52192;52.002;5.956;2022-08-03T14:37:46;36.10;39.70
39045;DHT22;52192;52.002;5.956;2022-08-03T14:40:12;36.20;39.70
39045;DHT22;52192;52.002;5.956;2022-08-03T14:42:37;36.40;38.90
39045;DHT22;52192;52.002;5.956;2022-08-03T14:45:03;36.30;38.90
39045;DHT22;52192;52.002;5.956;2022-08-03T14:47:28;36.20;39.00
39045;DHT22;52192;52.002;5.956;2022-08-03T14:49:54;36.00;39.50
39045;DHT22;52192;52.002;5.956;2022-08-03T14:52:20;36.00;39.80
39045;DHT22;52192;52.002;5.956;2022-08-03T14:54:45;36.20;39.50
39045;DHT22;52192;52.002;5.956;2022-08-03T14:57:11;36.30;39.30
39045;DHT22;52192;52.002;5.956;2022-08-03T14:59:36;36.20;39.00
39045;DHT22;52192;52.002;5.956;2022-08-03T15:02:02;36.10;39.40
39045;DHT22;52192;52.002;5.956;2022-08-03T15:04:27;36.10;39.70
39045;DHT22;52192;52.002;5.956;2022-08-03T15:06:53;36.30;39.50
39045;DHT22;52192;52.002;5.956;2022-08-03T15:09:18;36.40;39.60
39045;DHT22;52192;52.002;5.956;2022-08-03T15:11:44;36.40;39.50
39045;DHT22;52192;52.002;5.956;2022-08-03T15:14:10;36.30;39.30
39045;DHT22;52192;52.002;5.956;2022-08-03T15:16:36;36.20;39.50
39045;DHT22;52192;52.002;5.956;2022-08-03T15:19:02;36.30;39.50
39045;DHT22;52192;52.002;5.956;2022-08-03T15:21:27;36.30;39.40
39045;DHT22;52192;52.002;5.956;2022-08-03T15:23:53;36.30;38.90
39045;DHT22;52192;52.002;5.956;2022-08-03T15:26:18;36.30;39.20
39045;DHT22;52192;52.002;5.956;2022-08-03T15:28:44;36.40;39.40
39045;DHT22;52192;52.002;5.956;2022-08-03T15:31:10;36.40;38.70
39045;DHT22;52192;52.002;5.956;2022-08-03T15:33:35;36.30;38.80
39045;DHT22;52192;52.002;5.956;2022-08-03T15:36:02;36.10;39.20
39045;DHT22;52192;52.002;5.956;2022-08-03T15:38:27;36.10;39.60
39045;DHT22;52192;52.002;5.956;2022-08-03T15:40:53;36.30;39.50
39045;DHT22;52192;52.002;5.956;2022-08-03T15:43:20;36.40;39.50
39045;DHT22;52192;52.002;5.956;2022-08-03T15:45:45;36.50;39.40
39045;DHT22;52192;52.002;5.956;2022-08-03T15:48:11;36.60;39.20
39045;DHT22;52192;52.002;5.956;2022-08-03T15:50:36;36.50;39.20
39045;DHT22;52192;52.002;5.956;2022-08-03T15:53:02;36.40;38.90
39045;DHT22;52192;52.002;5.956;2022-08-03T15:55:28;36.30;38.90
39045;DHT22;52192;52.002;5.956;2022-08-03T15:57:55;36.40;38.90
39045;DHT22;52192;52.002;5.956;2022-08-03T16:00:21;36.40;38.80
39045;DHT22;52192;52.002;5.956;2022-08-03T16:02:47;36.50;38.60